Terminal Aerodrome Forecast
Issued by NWS

Current Version | Previous Version | Graphics & Text | Print | Product List | Glossary On
Versions: 1 2 3 4 5 6 7 8 9 10 11 12 13 14 15 16 17 18 19 20 21
000
FTUS41 KILN 241000 AAB
TAFLCK
TAF AMD
KLCK 241008Z 2410/2506 17004KT P6SM BKN008 OVC080
     FM241300 14007KT P6SM VCSH OVC018
     FM241700 17011KT 5SM BR VCSH SCT015 OVC022
     FM242100 20017G25KT P6SM -SHRA OVC015
     FM250000 24025G40KT P6SM OVC015
     FM250400 24018G28KT P6SM OVC015=

USA.gov is the U.S. government's official web portal to all federal, state and local government web resources and services.